sensor_id;sensor_type;location;lat;lon;timestamp;P1;durP1;ratioP1;P2;durP2;ratioP2
21107;SDS011;10712;52.944;9.098;2023-03-01T00:00:49;8.05;;;5.85;;
21107;SDS011;10712;52.944;9.098;2023-03-01T00:03:15;9.45;;;6.85;;
21107;SDS011;10712;52.944;9.098;2023-03-01T00:05:44;10.00;;;8.10;;
21107;SDS011;10712;52.944;9.098;2023-03-01T00:08:12;9.93;;;7.82;;
21107;SDS011;10712;52.944;9.098;2023-03-01T00:10:38;10.02;;;7.05;;
21107;SDS011;10712;52.944;9.098;2023-03-01T00:13:03;11.32;;;7.72;;
21107;SDS011;10712;52.944;9.098;2023-03-01T00:15:30;11.18;;;6.50;;
21107;SDS011;10712;52.944;9.098;2023-03-01T00:17:57;7.65;;;6.32;;
21107;SDS011;10712;52.944;9.098;2023-03-01T00:20:23;8.98;;;6.45;;
21107;SDS011;10712;52.944;9.098;2023-03-01T00:22:49;8.55;;;6.30;;
21107;SDS011;10712;52.944;9.098;2023-03-01T00:25:14;9.00;;;6.43;;
21107;SDS011;10712;52.944;9.098;2023-03-01T00:27:40;9.70;;;6.93;;
21107;SDS011;10712;52.944;9.098;2023-03-01T00:30:06;11.02;;;7.53;;
21107;SDS011;10712;52.944;9.098;2023-03-01T00:32:34;8.00;;;6.93;;
21107;SDS011;10712;52.944;9.098;2023-03-01T00:35:00;10.23;;;6.78;;
21107;SDS011;10712;52.944;9.098;2023-03-01T00:37:25;8.50;;;6.22;;
21107;SDS011;10712;52.944;9.098;2023-03-01T00:39:51;9.20;;;6.13;;
21107;SDS011;10712;52.944;9.098;2023-03-01T00:42:17;9.23;;;6.63;;
21107;SDS011;10712;52.944;9.098;2023-03-01T00:44:43;9.70;;;6.50;;
21107;SDS011;10712;52.944;9.098;2023-03-01T00:47:08;6.72;;;6.03;;
21107;SDS011;10712;52.944;9.098;2023-03-01T00:49:34;9.95;;;6.40;;
21107;SDS011;10712;52.944;9.098;2023-03-01T00:52:00;8.52;;;5.93;;
21107;SDS011;10712;52.944;9.098;2023-03-01T00:54:26;11.43;;;7.03;;
21107;SDS011;10712;52.944;9.098;2023-03-01T00:56:52;9.27;;;6.72;;
21107;SDS011;10712;52.944;9.098;2023-03-01T00:59:18;10.88;;;6.65;;
21107;SDS011;10712;52.944;9.098;2023-03-01T01:01:44;9.68;;;6.82;;
21107;SDS011;10712;52.944;9.098;2023-03-01T01:04:10;10.45;;;6.43;;
21107;SDS011;10712;52.944;9.098;2023-03-01T01:06:39;9.73;;;6.65;;
21107;SDS011;10712;52.944;9.098;2023-03-01T01:09:10;9.13;;;6.10;;
21107;SDS011;10712;52.944;9.098;2023-03-01T01:11:43;7.47;;;5.53;;
21107;SDS011;10712;52.944;9.098;2023-03-01T01:14:13;7.05;;;5.05;;
21107;SDS011;10712;52.944;9.098;2023-03-01T01:16:39;8.40;;;6.15;;
21107;SDS011;10712;52.944;9.098;2023-03-01T01:19:06;7.78;;;5.93;;
21107;SDS011;10712;52.944;9.098;2023-03-01T01:21:32;7.50;;;6.00;;
21107;SDS011;10712;52.944;9.098;2023-03-01T01:23:57;11.43;;;7.63;;
21107;SDS011;10712;52.944;9.098;2023-03-01T01:26:25;10.02;;;6.80;;
21107;SDS011;10712;52.944;9.098;2023-03-01T01:28:54;10.55;;;6.70;;
21107;SDS011;10712;52.944;9.098;2023-03-01T01:31:21;10.57;;;7.38;;
21107;SDS011;10712;52.944;9.098;2023-03-01T01:33:50;9.43;;;7.35;;
21107;SDS011;10712;52.944;9.098;2023-03-01T01:36:17;12.07;;;8.10;;
21107;SDS011;10712;52.944;9.098;2023-03-01T01:38:43;9.85;;;6.82;;
21107;SDS011;10712;52.944;9.098;2023-03-01T01:41:10;8.82;;;6.47;;
21107;SDS011;10712;52.944;9.098;2023-03-01T01:43:42;9.38;;;5.72;;
21107;SDS011;10712;52.944;9.098;2023-03-01T01:46:22;7.65;;;5.80;;
21107;SDS011;10712;52.944;9.098;2023-03-01T01:48:59;8.57;;;6.32;;
21107;SDS011;10712;52.944;9.098;2023-03-01T01:51:36;7.72;;;6.18;;
21107;SDS011;10712;52.944;9.098;2023-03-01T01:54:11;8.10;;;6.30;;
21107;SDS011;10712;52.944;9.098;2023-03-01T01:56:47;11.93;;;6.40;;
21107;SDS011;10712;52.944;9.098;2023-03-01T01:59:20;10.55;;;6.82;;
21107;SDS011;10712;52.944;9.098;2023-03-01T02:01:50;11.32;;;6.70;;
21107;SDS011;10712;52.944;9.098;2023-03-01T02:04:18;11.02;;;7.13;;
21107;SDS011;10712;52.944;9.098;2023-03-01T02:06:46;6.68;;;5.75;;
21107;SDS011;10712;52.944;9.098;2023-03-01T02:09:20;11.00;;;7.32;;
21107;SDS011;10712;52.944;9.098;2023-03-01T02:11:48;9.15;;;5.90;;
21107;SDS011;10712;52.944;9.098;2023-03-01T02:14:17;9.57;;;6.30;;
21107;SDS011;10712;52.944;9.098;2023-03-01T02:16:43;7.78;;;6.43;;
21107;SDS011;10712;52.944;9.098;2023-03-01T02:19:10;8.38;;;6.00;;
21107;SDS011;10712;52.944;9.098;2023-03-01T02:21:58;9.05;;;5.65;;
21107;SDS011;10712;52.944;9.098;2023-03-01T02:27:19;9.18;;;5.45;;
21107;SDS011;10712;52.944;9.098;2023-03-01T02:29:54;9.43;;;6.10;;
21107;SDS011;10712;52.944;9.098;2023-03-01T02:32:20;8.13;;;6.07;;
21107;SDS011;10712;52.944;9.098;2023-03-01T02:34:53;9.38;;;6.28;;
21107;SDS011;10712;52.944;9.098;2023-03-01T02:37:21;7.90;;;5.95;;
21107;SDS011;10712;52.944;9.098;2023-03-01T02:39:54;7.40;;;5.93;;
21107;SDS011;10712;52.944;9.098;2023-03-01T02:42:26;12.20;;;7.30;;
21107;SDS011;10712;52.944;9.098;2023-03-01T02:44:58;11.40;;;7.18;;
21107;SDS011;10712;52.944;9.098;2023-03-01T02:47:24;9.55;;;5.93;;
21107;SDS011;10712;52.944;9.098;2023-03-01T02:49:50;10.57;;;6.40;;
21107;SDS011;10712;52.944;9.098;2023-03-01T02:52:26;7.95;;;6.10;;
21107;SDS011;10712;52.944;9.098;2023-03-01T02:55:08;10.55;;;6.40;;
21107;SDS011;10712;52.944;9.098;2023-03-01T02:57:42;14.30;;;7.70;;
21107;SDS011;10712;52.944;9.098;2023-03-01T03:00:12;11.20;;;8.02;;
21107;SDS011;10712;52.944;9.098;2023-03-01T03:02:47;9.02;;;6.90;;
21107;SDS011;10712;52.944;9.098;2023-03-01T03:05:22;9.77;;;6.90;;
21107;SDS011;10712;52.944;9.098;2023-03-01T03:07:56;9.70;;;6.05;;
21107;SDS011;10712;52.944;9.098;2023-03-01T03:10:32;10.02;;;6.78;;
21107;SDS011;10712;52.944;9.098;2023-03-01T03:13:03;11.75;;;7.57;;
21107;SDS011;10712;52.944;9.098;2023-03-01T03:15:33;9.65;;;6.57;;
21107;SDS011;10712;52.944;9.098;2023-03-01T03:18:01;8.82;;;5.72;;
21107;SDS011;10712;52.944;9.098;2023-03-01T03:20:33;7.68;;;6.20;;
21107;SDS011;10712;52.944;9.098;2023-03-01T03:23:01;9.27;;;6.35;;
21107;SDS011;10712;52.944;9.098;2023-03-01T03:25:27;8.95;;;6.50;;
21107;SDS011;10712;52.944;9.098;2023-03-01T03:27:54;11.82;;;7.03;;
21107;SDS011;10712;52.944;9.098;2023-03-01T03:30:22;10.65;;;7.82;;
21107;SDS011;10712;52.944;9.098;2023-03-01T03:32:51;8.60;;;7.13;;
21107;SDS011;10712;52.944;9.098;2023-03-01T03:35:25;12.60;;;8.50;;
21107;SDS011;10712;52.944;9.098;2023-03-01T03:38:04;12.23;;;7.45;;
21107;SDS011;10712;52.944;9.098;2023-03-01T03:43:06;10.15;;;6.85;;
21107;SDS011;10712;52.944;9.098;2023-03-01T03:45:36;10.43;;;6.97;;
21107;SDS011;10712;52.944;9.098;2023-03-01T03:48:03;9.73;;;6.28;;
21107;SDS011;10712;52.944;9.098;2023-03-01T03:50:32;10.52;;;7.00;;
21107;SDS011;10712;52.944;9.098;2023-03-01T03:53:00;11.65;;;8.20;;
21107;SDS011;10712;52.944;9.098;2023-03-01T03:55:29;13.65;;;7.72;;
21107;SDS011;10712;52.944;9.098;2023-03-01T03:57:58;9.55;;;7.35;;
21107;SDS011;10712;52.944;9.098;2023-03-01T04:00:39;12.02;;;6.95;;
21107;SDS011;10712;52.944;9.098;2023-03-01T04:03:08;10.60;;;7.85;;
21107;SDS011;10712;52.944;9.098;2023-03-01T04:05:36;12.18;;;7.55;;
21107;SDS011;10712;52.944;9.098;2023-03-01T04:08:04;9.35;;;7.00;;
21107;SDS011;10712;52.944;9.098;2023-03-01T04:10:39;11.93;;;7.93;;
21107;SDS011;10712;52.944;9.098;2023-03-01T04:13:12;9.43;;;7.00;;
21107;SDS011;10712;52.944;9.098;2023-03-01T04:15:42;12.95;;;8.18;;
21107;SDS011;10712;52.944;9.098;2023-03-01T04:18:08;8.75;;;7.03;;
21107;SDS011;10712;52.944;9.098;2023-03-01T04:20:40;10.80;;;7.95;;
21107;SDS011;10712;52.944;9.098;2023-03-01T04:23:08;9.35;;;6.78;;
21107;SDS011;10712;52.944;9.098;2023-03-01T04:25:48;10.80;;;6.90;;
21107;SDS011;10712;52.944;9.098;2023-03-01T04:28:20;15.30;;;9.10;;
21107;SDS011;10712;52.944;9.098;2023-03-01T04:30:49;12.45;;;8.88;;
21107;SDS011;10712;52.944;9.098;2023-03-01T04:33:16;12.68;;;8.30;;
21107;SDS011;10712;52.944;9.098;2023-03-01T04:35:44;10.82;;;7.72;;
21107;SDS011;10712;52.944;9.098;2023-03-01T04:38:10;11.27;;;8.23;;
21107;SDS011;10712;52.944;9.098;2023-03-01T04:40:36;12.05;;;7.25;;
21107;SDS011;10712;52.944;9.098;2023-03-01T04:43:03;12.77;;;7.30;;
21107;SDS011;10712;52.944;9.098;2023-03-01T04:45:30;12.50;;;7.60;;
21107;SDS011;10712;52.944;9.098;2023-03-01T04:47:59;9.95;;;7.78;;
21107;SDS011;10712;52.944;9.098;2023-03-01T04:50:25;9.82;;;7.20;;
21107;SDS011;10712;52.944;9.098;2023-03-01T04:52:51;14.93;;;8.45;;
21107;SDS011;10712;52.944;9.098;2023-03-01T04:55:17;12.00;;;8.35;;
21107;SDS011;10712;52.944;9.098;2023-03-01T04:57:43;10.65;;;6.97;;
21107;SDS011;10712;52.944;9.098;2023-03-01T05:00:10;12.27;;;8.55;;
21107;SDS011;10712;52.944;9.098;2023-03-01T05:02:48;11.90;;;9.02;;
21107;SDS011;10712;52.944;9.098;2023-03-01T05:08:03;14.02;;;9.13;;
21107;SDS011;10712;52.944;9.098;2023-03-01T05:10:33;10.63;;;7.50;;
21107;SDS011;10712;52.944;9.098;2023-03-01T05:13:01;12.20;;;8.50;;
21107;SDS011;10712;52.944;9.098;2023-03-01T05:15:29;15.40;;;9.17;;
21107;SDS011;10712;52.944;9.098;2023-03-01T05:17:56;12.00;;;8.15;;
21107;SDS011;10712;52.944;9.098;2023-03-01T05:20:28;11.30;;;7.75;;
21107;SDS011;10712;52.944;9.098;2023-03-01T05:22:59;11.68;;;8.40;;
21107;SDS011;10712;52.944;9.098;2023-03-01T05:25:25;13.43;;;8.32;;
21107;SDS011;10712;52.944;9.098;2023-03-01T05:27:52;14.55;;;8.52;;
21107;SDS011;10712;52.944;9.098;2023-03-01T05:30:18;11.40;;;7.80;;
21107;SDS011;10712;52.944;9.098;2023-03-01T05:32:45;12.15;;;8.57;;
21107;SDS011;10712;52.944;9.098;2023-03-01T05:35:15;9.50;;;6.90;;
21107;SDS011;10712;52.944;9.098;2023-03-01T05:37:43;9.60;;;7.35;;
21107;SDS011;10712;52.944;9.098;2023-03-01T05:40:13;10.43;;;7.00;;
21107;SDS011;10712;52.944;9.098;2023-03-01T05:42:46;10.88;;;8.20;;
21107;SDS011;10712;52.944;9.098;2023-03-01T05:45:19;11.20;;;7.57;;
21107;SDS011;10712;52.944;9.098;2023-03-01T05:47:47;9.75;;;7.55;;
21107;SDS011;10712;52.944;9.098;2023-03-01T05:50:21;13.95;;;6.30;;
21107;SDS011;10712;52.944;9.098;2023-03-01T05:52:51;9.77;;;7.00;;
21107;SDS011;10712;52.944;9.098;2023-03-01T05:55:26;10.30;;;6.50;;
21107;SDS011;10712;52.944;9.098;2023-03-01T05:57:54;10.52;;;7.20;;
21107;SDS011;10712;52.944;9.098;2023-03-01T06:00:21;10.45;;;7.30;;
21107;SDS011;10712;52.944;9.098;2023-03-01T06:02:50;15.95;;;7.80;;
21107;SDS011;10712;52.944;9.098;2023-03-01T06:05:17;11.02;;;8.00;;
21107;SDS011;10712;52.944;9.098;2023-03-01T06:07:43;12.02;;;7.85;;
21107;SDS011;10712;52.944;9.098;2023-03-01T06:10:09;9.60;;;7.07;;
21107;SDS011;10712;52.944;9.098;2023-03-01T06:12:37;11.35;;;7.18;;
21107;SDS011;10712;52.944;9.098;2023-03-01T06:15:05;10.35;;;6.90;;
21107;SDS011;10712;52.944;9.098;2023-03-01T06:17:37;9.93;;;7.30;;
21107;SDS011;10712;52.944;9.098;2023-03-01T06:20:09;10.55;;;7.15;;
21107;SDS011;10712;52.944;9.098;2023-03-01T06:22:39;12.00;;;7.22;;
21107;SDS011;10712;52.944;9.098;2023-03-01T06:25:06;13.70;;;7.22;;
21107;SDS011;10712;52.944;9.098;2023-03-01T06:27:34;13.18;;;9.57;;
21107;SDS011;10712;52.944;9.098;2023-03-01T06:30:00;12.75;;;7.30;;
21107;SDS011;10712;52.944;9.098;2023-03-01T06:32:26;14.30;;;8.43;;
21107;SDS011;10712;52.944;9.098;2023-03-01T06:34:52;12.88;;;7.72;;
21107;SDS011;10712;52.944;9.098;2023-03-01T06:37:18;10.98;;;7.47;;
21107;SDS011;10712;52.944;9.098;2023-03-01T06:39:43;12.95;;;6.97;;
21107;SDS011;10712;52.944;9.098;2023-03-01T06:42:09;11.70;;;6.70;;
21107;SDS011;10712;52.944;9.098;2023-03-01T06:44:35;14.02;;;9.20;;
21107;SDS011;10712;52.944;9.098;2023-03-01T06:47:02;13.27;;;9.68;;
21107;SDS011;10712;52.944;9.098;2023-03-01T06:49:29;17.17;;;10.20;;
21107;SDS011;10712;52.944;9.098;2023-03-01T06:51:55;11.95;;;8.38;;
21107;SDS011;10712;52.944;9.098;2023-03-01T06:54:22;16.73;;;10.43;;
21107;SDS011;10712;52.944;9.098;2023-03-01T06:56:48;25.20;;;14.27;;
21107;SDS011;10712;52.944;9.098;2023-03-01T06:59:15;20.52;;;12.35;;
21107;SDS011;10712;52.944;9.098;2023-03-01T07:01:42;16.73;;;11.02;;
21107;SDS011;10712;52.944;9.098;2023-03-01T07:04:08;16.75;;;10.48;;
21107;SDS011;10712;52.944;9.098;2023-03-01T07:06:35;28.20;;;14.07;;
21107;SDS011;10712;52.944;9.098;2023-03-01T07:09:01;21.55;;;12.85;;
21107;SDS011;10712;52.944;9.098;2023-03-01T07:11:27;25.08;;;15.43;;
21107;SDS011;10712;52.944;9.098;2023-03-01T07:13:53;60.38;;;33.10;;
21107;SDS011;10712;52.944;9.098;2023-03-01T07:16:20;34.95;;;22.77;;
21107;SDS011;10712;52.944;9.098;2023-03-01T07:18:46;33.15;;;20.95;;
21107;SDS011;10712;52.944;9.098;2023-03-01T07:21:13;30.63;;;18.80;;
21107;SDS011;10712;52.944;9.098;2023-03-01T07:23:40;28.77;;;17.17;;
21107;SDS011;10712;52.944;9.098;2023-03-01T07:26:06;23.85;;;14.00;;
21107;SDS011;10712;52.944;9.098;2023-03-01T07:28:32;20.30;;;13.10;;
21107;SDS011;10712;52.944;9.098;2023-03-01T07:31:03;23.55;;;15.50;;
21107;SDS011;10712;52.944;9.098;2023-03-01T07:33:31;17.15;;;13.63;;
21107;SDS011;10712;52.944;9.098;2023-03-01T07:35:58;15.00;;;11.25;;
21107;SDS011;10712;52.944;9.098;2023-03-01T07:38:26;12.70;;;9.35;;
21107;SDS011;10712;52.944;9.098;2023-03-01T07:40:53;13.27;;;9.50;;
21107;SDS011;10712;52.944;9.098;2023-03-01T07:43:29;11.10;;;7.85;;
21107;SDS011;10712;52.944;9.098;2023-03-01T07:45:59;10.07;;;7.35;;
21107;SDS011;10712;52.944;9.098;2023-03-01T07:48:26;11.05;;;7.68;;
21107;SDS011;10712;52.944;9.098;2023-03-01T07:50:53;21.55;;;13.18;;
21107;SDS011;10712;52.944;9.098;2023-03-01T07:53:19;13.43;;;8.50;;
21107;SDS011;10712;52.944;9.098;2023-03-01T07:55:45;12.35;;;8.30;;
21107;SDS011;10712;52.944;9.098;2023-03-01T07:58:11;13.30;;;8.40;;
21107;SDS011;10712;52.944;9.098;2023-03-01T08:00:37;13.27;;;8.93;;
21107;SDS011;10712;52.944;9.098;2023-03-01T08:03:02;15.35;;;10.45;;
21107;SDS011;10712;52.944;9.098;2023-03-01T08:05:29;13.88;;;9.52;;
21107;SDS011;10712;52.944;9.098;2023-03-01T08:07:55;14.73;;;9.50;;
21107;SDS011;10712;52.944;9.098;2023-03-01T08:10:20;13.32;;;8.57;;
21107;SDS011;10712;52.944;9.098;2023-03-01T08:12:46;11.43;;;8.00;;
21107;SDS011;10712;52.944;9.098;2023-03-01T08:15:12;11.93;;;7.60;;
21107;SDS011;10712;52.944;9.098;2023-03-01T08:17:38;9.15;;;6.53;;
21107;SDS011;10712;52.944;9.098;2023-03-01T08:20:05;10.35;;;7.72;;
21107;SDS011;10712;52.944;9.098;2023-03-01T08:22:32;10.85;;;7.65;;
21107;SDS011;10712;52.944;9.098;2023-03-01T08:24:58;10.73;;;7.07;;
21107;SDS011;10712;52.944;9.098;2023-03-01T08:27:23;10.38;;;6.82;;
21107;SDS011;10712;52.944;9.098;2023-03-01T08:29:49;10.13;;;7.15;;
21107;SDS011;10712;52.944;9.098;2023-03-01T08:32:15;11.48;;;7.55;;
21107;SDS011;10712;52.944;9.098;2023-03-01T08:34:41;11.43;;;7.05;;
21107;SDS011;10712;52.944;9.098;2023-03-01T08:37:06;9.20;;;6.85;;
21107;SDS011;10712;52.944;9.098;2023-03-01T08:39:32;10.70;;;7.22;;
21107;SDS011;10712;52.944;9.098;2023-03-01T08:41:58;10.35;;;7.75;;
21107;SDS011;10712;52.944;9.098;2023-03-01T08:44:24;8.90;;;6.60;;
21107;SDS011;10712;52.944;9.098;2023-03-01T08:46:50;18.95;;;12.95;;
21107;SDS011;10712;52.944;9.098;2023-03-01T08:49:18;14.90;;;10.23;;
21107;SDS011;10712;52.944;9.098;2023-03-01T08:51:45;15.98;;;11.52;;
21107;SDS011;10712;52.944;9.098;2023-03-01T08:54:13;12.18;;;8.65;;
21107;SDS011;10712;52.944;9.098;2023-03-01T08:56:41;14.85;;;8.63;;
21107;SDS011;10712;52.944;9.098;2023-03-01T08:59:08;15.73;;;8.93;;
21107;SDS011;10712;52.944;9.098;2023-03-01T09:01:36;12.38;;;8.38;;
21107;SDS011;10712;52.944;9.098;2023-03-01T09:04:02;10.00;;;7.88;;
21107;SDS011;10712;52.944;9.098;2023-03-01T09:06:30;13.27;;;7.90;;
21107;SDS011;10712;52.944;9.098;2023-03-01T09:08:58;10.40;;;6.72;;
21107;SDS011;10712;52.944;9.098;2023-03-01T09:11:24;9.15;;;6.70;;
21107;SDS011;10712;52.944;9.098;2023-03-01T09:13:50;9.88;;;6.78;;
21107;SDS011;10712;52.944;9.098;2023-03-01T09:16:18;8.82;;;6.80;;
21107;SDS011;10712;52.944;9.098;2023-03-01T09:18:48;8.15;;;6.05;;
21107;SDS011;10712;52.944;9.098;2023-03-01T09:21:17;8.40;;;6.40;;
21107;SDS011;10712;52.944;9.098;2023-03-01T09:23:46;6.13;;;5.20;;
21107;SDS011;10712;52.944;9.098;2023-03-01T09:26:17;5.97;;;4.85;;
21107;SDS011;10712;52.944;9.098;2023-03-01T09:28:47;11.75;;;8.30;;
21107;SDS011;10712;52.944;9.098;2023-03-01T09:31:19;18.45;;;11.73;;
21107;SDS011;10712;52.944;9.098;2023-03-01T09:33:47;11.73;;;8.02;;
21107;SDS011;10712;52.944;9.098;2023-03-01T09:36:17;10.55;;;6.53;;
21107;SDS011;10712;52.944;9.098;2023-03-01T09:38:46;9.30;;;6.57;;
21107;SDS011;10712;52.944;9.098;2023-03-01T09:41:26;10.18;;;5.97;;
21107;SDS011;10712;52.944;9.098;2023-03-01T09:44:23;8.53;;;5.53;;
21107;SDS011;10712;52.944;9.098;2023-03-01T09:47:12;7.47;;;5.30;;
21107;SDS011;10712;52.944;9.098;2023-03-01T09:55:15;6.85;;;5.13;;
21107;SDS011;10712;52.944;9.098;2023-03-01T09:58:00;9.40;;;4.53;;
21107;SDS011;10712;52.944;9.098;2023-03-01T10:00:58;5.90;;;4.70;;
21107;SDS011;10712;52.944;9.098;2023-03-01T10:03:44;9.15;;;4.75;;
21107;SDS011;10712;52.944;9.098;2023-03-01T10:06:34;6.78;;;4.63;;
21107;SDS011;10712;52.944;9.098;2023-03-01T10:09:07;8.00;;;5.05;;
21107;SDS011;10712;52.944;9.098;2023-03-01T10:11:44;7.43;;;4.40;;
21107;SDS011;10712;52.944;9.098;2023-03-01T10:14:39;7.47;;;4.50;;
21107;SDS011;10712;52.944;9.098;2023-03-01T10:23:16;13.98;;;8.52;;
21107;SDS011;10712;52.944;9.098;2023-03-01T10:28:38;5.65;;;3.30;;
21107;SDS011;10712;52.944;9.098;2023-03-01T10:31:20;6.93;;;3.67;;
21107;SDS011;10712;52.944;9.098;2023-03-01T10:33:53;6.65;;;3.70;;
21107;SDS011;10712;52.944;9.098;2023-03-01T10:36:22;6.25;;;3.85;;
21107;SDS011;10712;52.944;9.098;2023-03-01T10:38:51;6.30;;;4.50;;
21107;SDS011;10712;52.944;9.098;2023-03-01T10:41:22;7.40;;;4.70;;
21107;SDS011;10712;52.944;9.098;2023-03-01T10:43:54;5.80;;;3.80;;
21107;SDS011;10712;52.944;9.098;2023-03-01T10:46:32;5.05;;;3.67;;
21107;SDS011;10712;52.944;9.098;2023-03-01T10:51:47;8.45;;;4.50;;
21107;SDS011;10712;52.944;9.098;2023-03-01T10:54:17;6.38;;;3.70;;
21107;SDS011;10712;52.944;9.098;2023-03-01T10:56:58;7.00;;;4.38;;
21107;SDS011;10712;52.944;9.098;2023-03-01T10:59:34;6.45;;;4.63;;
21107;SDS011;10712;52.944;9.098;2023-03-01T11:05:13;9.57;;;6.15;;
21107;SDS011;10712;52.944;9.098;2023-03-01T11:07:53;10.40;;;6.80;;
21107;SDS011;10712;52.944;9.098;2023-03-01T11:10:34;10.05;;;6.15;;
21107;SDS011;10712;52.944;9.098;2023-03-01T11:13:34;9.88;;;6.13;;
21107;SDS011;10712;52.944;9.098;2023-03-01T11:16:00;15.45;;;8.38;;
21107;SDS011;10712;52.944;9.098;2023-03-01T11:18:32;14.88;;;7.85;;
21107;SDS011;10712;52.944;9.098;2023-03-01T11:20:58;9.25;;;5.97;;
21107;SDS011;10712;52.944;9.098;2023-03-01T11:23:27;10.70;;;6.50;;
21107;SDS011;10712;52.944;9.098;2023-03-01T11:26:00;9.80;;;6.53;;
21107;SDS011;10712;52.944;9.098;2023-03-01T11:28:32;9.93;;;6.82;;
21107;SDS011;10712;52.944;9.098;2023-03-01T11:31:05;10.82;;;6.57;;
21107;SDS011;10712;52.944;9.098;2023-03-01T11:33:44;9.02;;;6.55;;
21107;SDS011;10712;52.944;9.098;2023-03-01T11:36:23;12.25;;;6.70;;
21107;SDS011;10712;52.944;9.098;2023-03-01T11:39:27;10.30;;;6.63;;
21107;SDS011;10712;52.944;9.098;2023-03-01T11:42:13;10.52;;;6.55;;
21107;SDS011;10712;52.944;9.098;2023-03-01T11:44:49;11.88;;;6.63;;
21107;SDS011;10712;52.944;9.098;2023-03-01T11:50:38;17.80;;;9.35;;
21107;SDS011;10712;52.944;9.098;2023-03-01T12:18:56;12.02;;;9.25;;
21107;SDS011;10712;52.944;9.098;2023-03-01T12:21:58;12.23;;;7.85;;
21107;SDS011;10712;52.944;9.098;2023-03-01T12:31:10;10.45;;;7.55;;
21107;SDS011;10712;52.944;9.098;2023-03-01T12:37:14;10.27;;;7.35;;
21107;SDS011;10712;52.944;9.098;2023-03-01T12:43:28;9.15;;;7.03;;
21107;SDS011;10712;52.944;9.098;2023-03-01T12:49:12;10.93;;;7.60;;
21107;SDS011;10712;52.944;9.098;2023-03-01T12:51:44;9.48;;;7.57;;
21107;SDS011;10712;52.944;9.098;2023-03-01T12:54:26;8.45;;;6.85;;
21107;SDS011;10712;52.944;9.098;2023-03-01T12:57:01;11.13;;;7.70;;
21107;SDS011;10712;52.944;9.098;2023-03-01T13:17:49;7.57;;;6.28;;
21107;SDS011;10712;52.944;9.098;2023-03-01T13:20:52;8.45;;;6.13;;
21107;SDS011;10712;52.944;9.098;2023-03-01T13:30:59;9.38;;;5.88;;
21107;SDS011;10712;52.944;9.098;2023-03-01T13:35:57;19.88;;;13.95;;
21107;SDS011;10712;52.944;9.098;2023-03-01T13:44:48;8.98;;;6.88;;
21107;SDS011;10712;52.944;9.098;2023-03-01T13:47:12;10.48;;;7.30;;
21107;SDS011;10712;52.944;9.098;2023-03-01T13:49:46;9.25;;;6.38;;
21107;SDS011;10712;52.944;9.098;2023-03-01T13:55:20;14.38;;;8.90;;
21107;SDS011;10712;52.944;9.098;2023-03-01T13:58:03;13.38;;;7.88;;
21107;SDS011;10712;52.944;9.098;2023-03-01T14:00:42;10.05;;;7.88;;
21107;SDS011;10712;52.944;9.098;2023-03-01T14:03:09;12.50;;;7.97;;
21107;SDS011;10712;52.944;9.098;2023-03-01T14:05:41;11.00;;;7.70;;
21107;SDS011;10712;52.944;9.098;2023-03-01T14:08:31;12.20;;;8.30;;
21107;SDS011;10712;52.944;9.098;2023-03-01T14:11:22;9.82;;;7.15;;
21107;SDS011;10712;52.944;9.098;2023-03-01T14:17:03;8.57;;;7.53;;
21107;SDS011;10712;52.944;9.098;2023-03-01T14:19:55;11.85;;;6.97;;
21107;SDS011;10712;52.944;9.098;2023-03-01T14:22:33;8.48;;;6.55;;
21107;SDS011;10712;52.944;9.098;2023-03-01T14:27:38;10.15;;;7.40;;
21107;SDS011;10712;52.944;9.098;2023-03-01T14:30:11;9.43;;;7.10;;
21107;SDS011;10712;52.944;9.098;2023-03-01T14:32:52;9.43;;;7.72;;
21107;SDS011;10712;52.944;9.098;2023-03-01T14:35:28;10.85;;;7.57;;
21107;SDS011;10712;52.944;9.098;2023-03-01T14:38:01;9.38;;;7.63;;
21107;SDS011;10712;52.944;9.098;2023-03-01T14:40:32;10.38;;;8.15;;
21107;SDS011;10712;52.944;9.098;2023-03-01T14:43:01;11.60;;;7.65;;
21107;SDS011;10712;52.944;9.098;2023-03-01T14:45:46;8.25;;;6.47;;
21107;SDS011;10712;52.944;9.098;2023-03-01T14:48:14;12.57;;;6.72;;
21107;SDS011;10712;52.944;9.098;2023-03-01T14:50:41;10.75;;;7.68;;
21107;SDS011;10712;52.944;9.098;2023-03-01T14:53:16;17.20;;;11.77;;
21107;SDS011;10712;52.944;9.098;2023-03-01T14:55:47;10.52;;;7.60;;
21107;SDS011;10712;52.944;9.098;2023-03-01T14:58:20;9.65;;;7.13;;
21107;SDS011;10712;52.944;9.098;2023-03-01T15:00:57;8.20;;;6.70;;
21107;SDS011;10712;52.944;9.098;2023-03-01T15:03:33;8.30;;;6.88;;
21107;SDS011;10712;52.944;9.098;2023-03-01T15:06:05;8.13;;;6.50;;
21107;SDS011;10712;52.944;9.098;2023-03-01T15:08:34;10.45;;;6.43;;
21107;SDS011;10712;52.944;9.098;2023-03-01T15:13:43;11.10;;;7.55;;
21107;SDS011;10712;52.944;9.098;2023-03-01T15:18:58;9.35;;;6.80;;
21107;SDS011;10712;52.944;9.098;2023-03-01T15:21:27;10.43;;;6.93;;
21107;SDS011;10712;52.944;9.098;2023-03-01T15:24:07;7.78;;;6.35;;
21107;SDS011;10712;52.944;9.098;2023-03-01T15:29:27;8.93;;;6.40;;
21107;SDS011;10712;52.944;9.098;2023-03-01T15:36:58;7.72;;;6.65;;
21107;SDS011;10712;52.944;9.098;2023-03-01T15:42:35;8.65;;;6.57;;
21107;SDS011;10712;52.944;9.098;2023-03-01T15:47:52;8.63;;;6.95;;
21107;SDS011;10712;52.944;9.098;2023-03-01T15:50:31;9.85;;;7.75;;
21107;SDS011;10712;52.944;9.098;2023-03-01T15:53:01;7.88;;;6.68;;
21107;SDS011;10712;52.944;9.098;2023-03-01T15:55:32;8.50;;;7.05;;
21107;SDS011;10712;52.944;9.098;2023-03-01T16:00:46;9.60;;;7.18;;
21107;SDS011;10712;52.944;9.098;2023-03-01T16:03:16;9.25;;;7.32;;
21107;SDS011;10712;52.944;9.098;2023-03-01T16:05:46;9.88;;;7.57;;
21107;SDS011;10712;52.944;9.098;2023-03-01T16:08:16;8.75;;;7.28;;
21107;SDS011;10712;52.944;9.098;2023-03-01T16:10:43;9.25;;;7.72;;
21107;SDS011;10712;52.944;9.098;2023-03-01T16:13:14;8.63;;;7.65;;
21107;SDS011;10712;52.944;9.098;2023-03-01T16:15:40;10.57;;;7.57;;
21107;SDS011;10712;52.944;9.098;2023-03-01T16:18:06;12.95;;;9.18;;
21107;SDS011;10712;52.944;9.098;2023-03-01T16:20:35;14.23;;;10.38;;
21107;SDS011;10712;52.944;9.098;2023-03-01T16:23:01;13.70;;;10.70;;
21107;SDS011;10712;52.944;9.098;2023-03-01T16:25:30;18.88;;;12.15;;
21107;SDS011;10712;52.944;9.098;2023-03-01T16:27:57;15.10;;;11.35;;
21107;SDS011;10712;52.944;9.098;2023-03-01T16:30:26;18.02;;;11.13;;
21107;SDS011;10712;52.944;9.098;2023-03-01T16:32:52;16.00;;;12.30;;
21107;SDS011;10712;52.944;9.098;2023-03-01T16:35:19;15.68;;;11.93;;
21107;SDS011;10712;52.944;9.098;2023-03-01T16:37:46;15.23;;;11.45;;
21107;SDS011;10712;52.944;9.098;2023-03-01T16:40:18;18.40;;;12.65;;
21107;SDS011;10712;52.944;9.098;2023-03-01T16:42:48;15.45;;;11.18;;
21107;SDS011;10712;52.944;9.098;2023-03-01T16:45:15;24.73;;;15.85;;
21107;SDS011;10712;52.944;9.098;2023-03-01T16:47:41;20.52;;;13.50;;
21107;SDS011;10712;52.944;9.098;2023-03-01T16:50:08;16.55;;;11.27;;
21107;SDS011;10712;52.944;9.098;2023-03-01T16:52:34;16.70;;;11.38;;
21107;SDS011;10712;52.944;9.098;2023-03-01T16:55:02;14.68;;;10.88;;
21107;SDS011;10712;52.944;9.098;2023-03-01T16:57:30;15.85;;;10.50;;
21107;SDS011;10712;52.944;9.098;2023-03-01T16:59:58;19.40;;;12.18;;
21107;SDS011;10712;52.944;9.098;2023-03-01T17:02:24;16.42;;;11.63;;
21107;SDS011;10712;52.944;9.098;2023-03-01T17:04:53;22.45;;;14.07;;
21107;SDS011;10712;52.944;9.098;2023-03-01T17:07:21;16.95;;;12.18;;
21107;SDS011;10712;52.944;9.098;2023-03-01T17:09:47;19.10;;;13.18;;
21107;SDS011;10712;52.944;9.098;2023-03-01T17:12:14;28.60;;;16.70;;
21107;SDS011;10712;52.944;9.098;2023-03-01T17:14:41;29.83;;;19.10;;
21107;SDS011;10712;52.944;9.098;2023-03-01T17:17:10;32.80;;;17.88;;